sensor_id;sensor_type;location;lat;lon;timestamp;pressure;altitude;pressure_sealevel;temperature;humidity
55066;BME280;40964;42.114;24.220;2023-04-27T00:02:06;97356.78;;;10.97;56.32
55066;BME280;40964;42.114;24.220;2023-04-27T00:04:32;97354.50;;;11.00;56.42
55066;BME280;40964;42.114;24.220;2023-04-27T00:06:57;97357.00;;;10.95;56.33
55066;BME280;40964;42.114;24.220;2023-04-27T00:09:23;97356.31;;;11.00;55.62
55066;BME280;40964;42.114;24.220;2023-04-27T00:11:48;97370.50;;;10.99;55.00
55066;BME280;40964;42.114;24.220;2023-04-27T00:14:13;97353.44;;;11.01;56.23
55066;BME280;40964;42.114;24.220;2023-04-27T00:16:39;97321.88;;;10.78;54.84
55066;BME280;40964;42.114;24.220;2023-04-27T00:19:04;97370.72;;;11.09;55.05
55066;BME280;40964;42.114;24.220;2023-04-27T00:21:30;97365.25;;;10.99;55.32
55066;BME280;40964;42.114;24.220;2023-04-27T00:23:56;97373.13;;;10.87;56.31
55066;BME280;40964;42.114;24.220;2023-04-27T00:26:21;97371.09;;;10.89;55.08
55066;BME280;40964;42.114;24.220;2023-04-27T00:28:47;97373.47;;;10.91;55.16
55066;BME280;40964;42.114;24.220;2023-04-27T00:31:12;97375.75;;;10.87;55.86
55066;BME280;40964;42.114;24.220;2023-04-27T00:33:38;97357.22;;;10.82;56.06
55066;BME280;40964;42.114;24.220;2023-04-27T00:36:03;97366.84;;;10.88;55.67
55066;BME280;40964;42.114;24.220;2023-04-27T00:38:29;97351.41;;;10.80;56.68
55066;BME280;40964;42.114;24.220;2023-04-27T00:41:05;97353.09;;;10.74;56.58
55066;BME280;40964;42.114;24.220;2023-04-27T00:43:32;97347.75;;;10.69;56.92
55066;BME280;40964;42.114;24.220;2023-04-27T00:45:58;97357.56;;;10.74;56.23
55066;BME280;40964;42.114;24.220;2023-04-27T00:48:24;97360.31;;;10.67;56.45
55066;BME280;40964;42.114;24.220;2023-04-27T00:50:50;97365.94;;;10.83;55.34
55066;BME280;40964;42.114;24.220;2023-04-27T00:53:17;97371.41;;;10.81;56.34
55066;BME280;40964;42.114;24.220;2023-04-27T00:55:42;97374.94;;;10.75;55.04
55066;BME280;40964;42.114;24.220;2023-04-27T00:58:08;97363.41;;;10.64;55.79
55066;BME280;40964;42.114;24.220;2023-04-27T01:00:36;97377.13;;;10.66;56.00
55066;BME280;40964;42.114;24.220;2023-04-27T01:03:03;97376.09;;;10.67;55.71
55066;BME280;40964;42.114;24.220;2023-04-27T01:05:29;97385.56;;;10.68;55.92
55066;BME280;40964;42.114;24.220;2023-04-27T01:07:55;97379.16;;;10.64;55.96
55066;BME280;40964;42.114;24.220;2023-04-27T01:10:20;97396.31;;;10.67;55.44
55066;BME280;40964;42.114;24.220;2023-04-27T01:12:46;97382.47;;;10.60;55.86
55066;BME280;40964;42.114;24.220;2023-04-27T01:18:00;97392.66;;;10.68;55.25
55066;BME280;40964;42.114;24.220;2023-04-27T01:20:27;97383.63;;;10.64;55.89
55066;BME280;40964;42.114;24.220;2023-04-27T01:22:56;97396.09;;;10.68;55.76
55066;BME280;40964;42.114;24.220;2023-04-27T01:25:22;97402.84;;;10.64;54.98
55066;BME280;40964;42.114;24.220;2023-04-27T01:27:48;97403.63;;;10.65;55.61
55066;BME280;40964;42.114;24.220;2023-04-27T01:30:13;97388.66;;;10.54;56.37
55066;BME280;40964;42.114;24.220;2023-04-27T01:32:40;97398.25;;;10.60;55.84
55066;BME280;40964;42.114;24.220;2023-04-27T01:35:06;97402.69;;;10.59;56.85
55066;BME280;40964;42.114;24.220;2023-04-27T01:37:32;97402.03;;;10.52;55.43
55066;BME280;40964;42.114;24.220;2023-04-27T01:39:57;97409.78;;;10.59;56.72
55066;BME280;40964;42.114;24.220;2023-04-27T01:42:22;97409.91;;;10.52;57.04
55066;BME280;40964;42.114;24.220;2023-04-27T01:44:48;97403.72;;;10.46;57.48
55066;BME280;40964;42.114;24.220;2023-04-27T01:47:17;97406.66;;;10.38;57.83
55066;BME280;40964;42.114;24.220;2023-04-27T01:49:43;97403.09;;;10.33;57.64
55066;BME280;40964;42.114;24.220;2023-04-27T01:52:08;97400.69;;;10.31;56.85
55066;BME280;40964;42.114;24.220;2023-04-27T01:54:34;97413.28;;;10.41;57.18
55066;BME280;40964;42.114;24.220;2023-04-27T01:56:59;97421.88;;;10.36;58.42
55066;BME280;40964;42.114;24.220;2023-04-27T01:59:26;97425.28;;;10.37;58.09
55066;BME280;40964;42.114;24.220;2023-04-27T02:01:52;97437.50;;;10.31;58.01
55066;BME280;40964;42.114;24.220;2023-04-27T02:04:18;97431.44;;;10.31;58.61
55066;BME280;40964;42.114;24.220;2023-04-27T02:06:43;97422.63;;;10.25;59.43
55066;BME280;40964;42.114;24.220;2023-04-27T02:09:09;97430.94;;;10.22;59.66
55066;BME280;40964;42.114;24.220;2023-04-27T02:11:34;97425.09;;;10.20;58.46
55066;BME280;40964;42.114;24.220;2023-04-27T02:14:00;97431.13;;;10.20;59.26
55066;BME280;40964;42.114;24.220;2023-04-27T02:16:25;97430.19;;;10.15;58.98
55066;BME280;40964;42.114;24.220;2023-04-27T02:18:51;97427.56;;;10.15;59.64
55066;BME280;40964;42.114;24.220;2023-04-27T02:21:18;97441.50;;;10.15;59.10
55066;BME280;40964;42.114;24.220;2023-04-27T02:23:43;97436.94;;;10.11;59.26
55066;BME280;40964;42.114;24.220;2023-04-27T02:26:18;97446.19;;;10.13;59.10
55066;BME280;40964;42.114;24.220;2023-04-27T02:28:45;97437.81;;;10.05;59.66
55066;BME280;40964;42.114;24.220;2023-04-27T02:31:12;97451.31;;;10.08;61.30
55066;BME280;40964;42.114;24.220;2023-04-27T02:33:38;97453.06;;;9.96;60.92
55066;BME280;40964;42.114;24.220;2023-04-27T02:36:04;97453.28;;;9.94;61.42
55066;BME280;40964;42.114;24.220;2023-04-27T02:38:29;97450.72;;;9.88;61.36
55066;BME280;40964;42.114;24.220;2023-04-27T02:40:55;97450.59;;;9.83;61.43
55066;BME280;40964;42.114;24.220;2023-04-27T02:43:20;97457.47;;;9.84;62.22
55066;BME280;40964;42.114;24.220;2023-04-27T02:45:46;97460.88;;;9.84;62.02
55066;BME280;40964;42.114;24.220;2023-04-27T02:48:12;97463.97;;;9.81;62.76
55066;BME280;40964;42.114;24.220;2023-04-27T02:50:41;97463.69;;;9.71;62.81
55066;BME280;40964;42.114;24.220;2023-04-27T02:53:07;97463.16;;;9.62;63.47
55066;BME280;40964;42.114;24.220;2023-04-27T02:55:32;97468.25;;;9.76;62.89
55066;BME280;40964;42.114;24.220;2023-04-27T02:57:58;97467.69;;;9.74;62.83
55066;BME280;40964;42.114;24.220;2023-04-27T03:00:23;97465.91;;;9.67;64.04
55066;BME280;40964;42.114;24.220;2023-04-27T03:02:49;97482.25;;;9.70;63.77
55066;BME280;40964;42.114;24.220;2023-04-27T03:05:15;97461.63;;;9.55;63.60
55066;BME280;40964;42.114;24.220;2023-04-27T03:07:41;97484.53;;;9.66;63.29
55066;BME280;40964;42.114;24.220;2023-04-27T03:10:08;97483.28;;;9.68;63.96
55066;BME280;40964;42.114;24.220;2023-04-27T03:12:33;97489.59;;;9.61;63.04
55066;BME280;40964;42.114;24.220;2023-04-27T03:14:59;97490.06;;;9.58;63.44
55066;BME280;40964;42.114;24.220;2023-04-27T03:17:25;97443.88;;;9.32;64.48
55066;BME280;40964;42.114;24.220;2023-04-27T03:19:51;97482.91;;;9.65;64.31
55066;BME280;40964;42.114;24.220;2023-04-27T03:22:16;97486.00;;;9.62;64.08
55066;BME280;40964;42.114;24.220;2023-04-27T03:24:42;97492.47;;;9.59;63.98
55066;BME280;40964;42.114;24.220;2023-04-27T03:27:08;97492.91;;;9.56;63.76
55066;BME280;40964;42.114;24.220;2023-04-27T03:29:33;97485.31;;;9.48;62.81
55066;BME280;40964;42.114;24.220;2023-04-27T03:31:59;97495.00;;;9.48;63.39
55066;BME280;40964;42.114;24.220;2023-04-27T03:34:25;97480.34;;;9.40;63.04
55066;BME280;40964;42.114;24.220;2023-04-27T03:36:50;97504.47;;;9.49;64.28
55066;BME280;40964;42.114;24.220;2023-04-27T03:39:15;97505.50;;;9.48;61.91
55066;BME280;40964;42.114;24.220;2023-04-27T03:41:41;97500.75;;;9.38;61.64
55066;BME280;40964;42.114;24.220;2023-04-27T03:44:06;97504.13;;;9.45;62.38
55066;BME280;40964;42.114;24.220;2023-04-27T03:46:32;97506.13;;;9.43;62.75
55066;BME280;40964;42.114;24.220;2023-04-27T03:48:57;97495.72;;;9.36;63.28
55066;BME280;40964;42.114;24.220;2023-04-27T03:51:23;97509.06;;;9.35;63.48
55066;BME280;40964;42.114;24.220;2023-04-27T03:53:48;97493.16;;;9.30;63.43
55066;BME280;40964;42.114;24.220;2023-04-27T03:56:14;97507.81;;;9.37;63.37
55066;BME280;40964;42.114;24.220;2023-04-27T03:58:40;97530.09;;;9.53;63.51
55066;BME280;40964;42.114;24.220;2023-04-27T04:01:05;97508.63;;;9.38;61.50
55066;BME280;40964;42.114;24.220;2023-04-27T04:03:34;97524.47;;;9.50;62.53
55066;BME280;40964;42.114;24.220;2023-04-27T04:06:00;97528.06;;;9.55;63.59
55066;BME280;40964;42.114;24.220;2023-04-27T04:08:28;97533.59;;;9.65;62.89
55066;BME280;40964;42.114;24.220;2023-04-27T04:10:55;97535.50;;;9.58;61.84
55066;BME280;40964;42.114;24.220;2023-04-27T04:13:21;97537.88;;;9.60;62.90
55066;BME280;40964;42.114;24.220;2023-04-27T04:15:46;97543.94;;;9.60;63.37
55066;BME280;40964;42.114;24.220;2023-04-27T04:18:11;97548.25;;;9.55;63.82
55066;BME280;40964;42.114;24.220;2023-04-27T04:20:37;97543.22;;;9.53;62.74
55066;BME280;40964;42.114;24.220;2023-04-27T04:23:02;97529.75;;;9.43;63.89
55066;BME280;40964;42.114;24.220;2023-04-27T04:25:28;97554.56;;;9.47;63.93
55066;BME280;40964;42.114;24.220;2023-04-27T04:27:54;97543.50;;;9.45;63.32
55066;BME280;40964;42.114;24.220;2023-04-27T04:30:19;97534.75;;;9.26;63.45
55066;BME280;40964;42.114;24.220;2023-04-27T04:32:45;97560.31;;;9.37;63.69
55066;BME280;40964;42.114;24.220;2023-04-27T04:35:10;97561.09;;;9.38;63.53
55066;BME280;40964;42.114;24.220;2023-04-27T04:37:36;97552.66;;;9.36;63.42
55066;BME280;40964;42.114;24.220;2023-04-27T04:40:06;97560.31;;;9.37;61.71
55066;BME280;40964;42.114;24.220;2023-04-27T04:42:35;97568.81;;;9.33;61.62
55066;BME280;40964;42.114;24.220;2023-04-27T04:45:04;97564.56;;;9.32;61.74
55066;BME280;40964;42.114;24.220;2023-04-27T04:47:31;97571.66;;;9.31;59.56
55066;BME280;40964;42.114;24.220;2023-04-27T04:49:57;97574.66;;;9.35;58.17
55066;BME280;40964;42.114;24.220;2023-04-27T04:52:23;97570.81;;;9.37;58.60
55066;BME280;40964;42.114;24.220;2023-04-27T04:54:51;97570.59;;;9.39;59.93
55066;BME280;40964;42.114;24.220;2023-04-27T04:57:17;97577.84;;;9.44;59.66
55066;BME280;40964;42.114;24.220;2023-04-27T04:59:43;97583.59;;;9.52;57.23
55066;BME280;40964;42.114;24.220;2023-04-27T05:02:08;97585.22;;;9.53;57.98
55066;BME280;40964;42.114;24.220;2023-04-27T05:04:33;97578.81;;;9.67;59.49
55066;BME280;40964;42.114;24.220;2023-04-27T05:06:59;97593.94;;;9.72;59.44
55066;BME280;40964;42.114;24.220;2023-04-27T05:09:24;97587.00;;;9.78;60.16
55066;BME280;40964;42.114;24.220;2023-04-27T05:11:50;97587.31;;;9.88;58.54
55066;BME280;40964;42.114;24.220;2023-04-27T05:14:15;97590.16;;;9.86;57.76
55066;BME280;40964;42.114;24.220;2023-04-27T05:16:41;97584.50;;;9.89;56.64
55066;BME280;40964;42.114;24.220;2023-04-27T05:19:06;97593.19;;;9.90;55.84
55066;BME280;40964;42.114;24.220;2023-04-27T05:21:32;97586.91;;;9.91;56.06
55066;BME280;40964;42.114;24.220;2023-04-27T05:23:58;97585.22;;;9.96;56.25
55066;BME280;40964;42.114;24.220;2023-04-27T05:26:23;97587.44;;;10.00;55.31
55066;BME280;40964;42.114;24.220;2023-04-27T05:28:49;97586.53;;;10.06;54.81
55066;BME280;40964;42.114;24.220;2023-04-27T05:31:14;97597.84;;;10.06;55.66
55066;BME280;40964;42.114;24.220;2023-04-27T05:33:40;97586.63;;;10.17;55.10
55066;BME280;40964;42.114;24.220;2023-04-27T05:36:05;97606.63;;;10.18;52.55
55066;BME280;40964;42.114;24.220;2023-04-27T05:38:31;97596.69;;;10.20;52.94
55066;BME280;40964;42.114;24.220;2023-04-27T05:40:59;97603.38;;;10.23;53.45
55066;BME280;40964;42.114;24.220;2023-04-27T05:43:25;97599.72;;;10.24;53.00
55066;BME280;40964;42.114;24.220;2023-04-27T05:45:50;97603.53;;;10.28;54.52
55066;BME280;40964;42.114;24.220;2023-04-27T05:48:16;97606.00;;;10.41;53.86
55066;BME280;40964;42.114;24.220;2023-04-27T05:50:42;97606.38;;;10.45;54.37
55066;BME280;40964;42.114;24.220;2023-04-27T05:53:08;97608.34;;;10.49;53.61
55066;BME280;40964;42.114;24.220;2023-04-27T05:55:34;97608.50;;;10.55;52.81
55066;BME280;40964;42.114;24.220;2023-04-27T05:58:00;97602.84;;;10.69;53.20
55066;BME280;40964;42.114;24.220;2023-04-27T06:00:26;97610.41;;;10.77;52.58
55066;BME280;40964;42.114;24.220;2023-04-27T06:02:52;97623.38;;;10.79;53.04
55066;BME280;40964;42.114;24.220;2023-04-27T06:05:18;97615.34;;;10.74;50.91
55066;BME280;40964;42.114;24.220;2023-04-27T06:07:43;97620.13;;;10.77;52.57
55066;BME280;40964;42.114;24.220;2023-04-27T06:10:10;97622.03;;;10.88;51.07
55066;BME280;40964;42.114;24.220;2023-04-27T06:12:36;97615.78;;;11.01;50.81
55066;BME280;40964;42.114;24.220;2023-04-27T06:15:01;97615.13;;;11.05;50.55
55066;BME280;40964;42.114;24.220;2023-04-27T06:17:36;97622.19;;;11.05;50.46
55066;BME280;40964;42.114;24.220;2023-04-27T06:20:04;97629.72;;;11.31;52.48
55066;BME280;40964;42.114;24.220;2023-04-27T06:22:31;97632.88;;;11.52;50.16
55066;BME280;40964;42.114;24.220;2023-04-27T06:24:57;97633.44;;;11.42;48.85
55066;BME280;40964;42.114;24.220;2023-04-27T06:27:22;97631.13;;;11.34;50.58
55066;BME280;40964;42.114;24.220;2023-04-27T06:29:47;97640.25;;;11.31;50.97
55066;BME280;40964;42.114;24.220;2023-04-27T06:32:13;97638.78;;;11.35;49.97
55066;BME280;40964;42.114;24.220;2023-04-27T06:34:38;97643.38;;;11.40;51.12
55066;BME280;40964;42.114;24.220;2023-04-27T06:37:04;97645.91;;;11.47;52.18
55066;BME280;40964;42.114;24.220;2023-04-27T06:39:30;97636.41;;;11.34;50.74
55066;BME280;40964;42.114;24.220;2023-04-27T06:41:56;97654.06;;;11.45;47.91
55066;BME280;40964;42.114;24.220;2023-04-27T06:44:22;97641.22;;;11.49;50.39
55066;BME280;40964;42.114;24.220;2023-04-27T06:46:48;97640.09;;;11.45;49.34
55066;BME280;40964;42.114;24.220;2023-04-27T06:49:13;97654.75;;;11.52;50.25
55066;BME280;40964;42.114;24.220;2023-04-27T06:51:39;97645.34;;;11.45;50.57
55066;BME280;40964;42.114;24.220;2023-04-27T06:54:04;97649.81;;;11.44;51.12
55066;BME280;40964;42.114;24.220;2023-04-27T06:56:30;97642.47;;;11.34;50.03
55066;BME280;40964;42.114;24.220;2023-04-27T06:58:55;97647.28;;;11.37;49.46
55066;BME280;40964;42.114;24.220;2023-04-27T07:01:21;97649.44;;;11.41;48.28
55066;BME280;40964;42.114;24.220;2023-04-27T07:03:46;97654.38;;;11.49;48.32
55066;BME280;40964;42.114;24.220;2023-04-27T07:06:11;97655.91;;;11.68;49.11
55066;BME280;40964;42.114;24.220;2023-04-27T07:08:37;97642.72;;;11.86;49.78
55066;BME280;40964;42.114;24.220;2023-04-27T07:11:02;97650.94;;;11.90;50.00
55066;BME280;40964;42.114;24.220;2023-04-27T07:13:28;97642.81;;;11.91;50.64
55066;BME280;40964;42.114;24.220;2023-04-27T07:18:42;97643.97;;;12.07;48.25
55066;BME280;40964;42.114;24.220;2023-04-27T07:21:08;97630.56;;;12.09;49.72
55066;BME280;40964;42.114;24.220;2023-04-27T07:23:34;97641.00;;;12.15;48.81
55066;BME280;40964;42.114;24.220;2023-04-27T07:26:00;97643.84;;;12.26;48.91
55066;BME280;40964;42.114;24.220;2023-04-27T07:28:27;97642.34;;;12.18;48.56
55066;BME280;40964;42.114;24.220;2023-04-27T07:30:53;97635.97;;;12.14;47.83
55066;BME280;40964;42.114;24.220;2023-04-27T07:33:18;97646.69;;;12.12;47.80
55066;BME280;40964;42.114;24.220;2023-04-27T07:35:44;97653.00;;;12.11;47.39
55066;BME280;40964;42.114;24.220;2023-04-27T07:38:09;97649.81;;;12.21;46.80
55066;BME280;40964;42.114;24.220;2023-04-27T07:40:36;97643.06;;;12.25;47.73
55066;BME280;40964;42.114;24.220;2023-04-27T07:43:01;97646.25;;;12.27;47.14
55066;BME280;40964;42.114;24.220;2023-04-27T07:45:27;97630.09;;;12.00;46.67
55066;BME280;40964;42.114;24.220;2023-04-27T07:47:59;97648.75;;;12.22;47.97
55066;BME280;40964;42.114;24.220;2023-04-27T07:50:27;97643.25;;;12.35;46.43
55066;BME280;40964;42.114;24.220;2023-04-27T07:52:53;97636.41;;;12.74;47.57
55066;BME280;40964;42.114;24.220;2023-04-27T07:55:20;97643.00;;;13.00;46.39
55066;BME280;40964;42.114;24.220;2023-04-27T07:57:46;97639.03;;;13.15;45.39
55066;BME280;40964;42.114;24.220;2023-04-27T08:00:12;97644.75;;;13.52;44.44
55066;BME280;40964;42.114;24.220;2023-04-27T08:02:37;97640.03;;;13.87;44.02
55066;BME280;40964;42.114;24.220;2023-04-27T08:05:03;97640.88;;;14.10;44.79
55066;BME280;40964;42.114;24.220;2023-04-27T08:07:29;97635.44;;;14.16;44.31
55066;BME280;40964;42.114;24.220;2023-04-27T08:09:56;97627.75;;;14.37;41.79
55066;BME280;40964;42.114;24.220;2023-04-27T08:12:21;97631.84;;;14.44;42.26
55066;BME280;40964;42.114;24.220;2023-04-27T08:14:47;97635.22;;;14.57;42.61
55066;BME280;40964;42.114;24.220;2023-04-27T08:17:12;97625.56;;;14.67;41.36
55066;BME280;40964;42.114;24.220;2023-04-27T08:19:38;97625.00;;;14.65;41.46
55066;BME280;40964;42.114;24.220;2023-04-27T08:22:04;97632.63;;;14.84;41.55
55066;BME280;40964;42.114;24.220;2023-04-27T08:24:30;97629.25;;;15.15;42.05
55066;BME280;40964;42.114;24.220;2023-04-27T08:26:55;97618.56;;;15.05;40.86
55066;BME280;40964;42.114;24.220;2023-04-27T08:29:21;97616.97;;;14.82;41.48
55066;BME280;40964;42.114;24.220;2023-04-27T08:31:46;97619.66;;;15.09;40.34
55066;BME280;40964;42.114;24.220;2023-04-27T08:34:12;97617.56;;;15.38;40.58
55066;BME280;40964;42.114;24.220;2023-04-27T08:36:37;97628.97;;;15.12;40.72
55066;BME280;40964;42.114;24.220;2023-04-27T08:39:03;97619.78;;;15.19;42.52
55066;BME280;40964;42.114;24.220;2023-04-27T08:41:32;97618.41;;;15.44;40.37
55066;BME280;40964;42.114;24.220;2023-04-27T08:43:57;97606.88;;;15.60;41.77
55066;BME280;40964;42.114;24.220;2023-04-27T08:46:24;97624.47;;;15.71;39.35
55066;BME280;40964;42.114;24.220;2023-04-27T08:48:53;97622.94;;;15.75;39.96
55066;BME280;40964;42.114;24.220;2023-04-27T08:51:19;97610.50;;;15.81;39.18
55066;BME280;40964;42.114;24.220;2023-04-27T08:53:53;97610.41;;;16.03;41.46
55066;BME280;40964;42.114;24.220;2023-04-27T08:56:19;97623.50;;;15.50;39.13
55066;BME280;40964;42.114;24.220;2023-04-27T08:58:50;97625.16;;;15.56;39.80
55066;BME280;40964;42.114;24.220;2023-04-27T09:01:15;97630.63;;;16.09;39.87
55066;BME280;40964;42.114;24.220;2023-04-27T09:03:41;97622.41;;;16.10;37.66
55066;BME280;40964;42.114;24.220;2023-04-27T09:06:07;97631.53;;;16.30;39.31
55066;BME280;40964;42.114;24.220;2023-04-27T09:08:46;97620.69;;;15.94;37.73
55066;BME280;40964;42.114;24.220;2023-04-27T09:11:13;97628.38;;;15.91;39.03
55066;BME280;40964;42.114;24.220;2023-04-27T09:13:41;97610.94;;;15.68;38.76
55066;BME280;40964;42.114;24.220;2023-04-27T09:16:10;97602.06;;;15.89;38.08
55066;BME280;40964;42.114;24.220;2023-04-27T09:18:40;97619.81;;;16.26;40.49
55066;BME280;40964;42.114;24.220;2023-04-27T09:21:06;97629.84;;;16.13;37.72
55066;BME280;40964;42.114;24.220;2023-04-27T09:23:40;97621.34;;;16.11;35.72
55066;BME280;40964;42.114;24.220;2023-04-27T09:26:08;97617.56;;;16.02;38.16
55066;BME280;40964;42.114;24.220;2023-04-27T09:28:37;97624.94;;;16.37;37.23
55066;BME280;40964;42.114;24.220;2023-04-27T09:31:03;97614.41;;;16.58;35.71
55066;BME280;40964;42.114;24.220;2023-04-27T09:33:33;97619.84;;;16.83;38.09
55066;BME280;40964;42.114;24.220;2023-04-27T09:36:02;97628.31;;;16.23;35.24
55066;BME280;40964;42.114;24.220;2023-04-27T09:38:28;97621.28;;;16.06;36.37
55066;BME280;40964;42.114;24.220;2023-04-27T09:40:55;97620.34;;;16.23;37.06
55066;BME280;40964;42.114;24.220;2023-04-27T09:43:21;97609.59;;;16.50;37.78
55066;BME280;40964;42.114;24.220;2023-04-27T09:45:48;97613.34;;;16.59;36.52
55066;BME280;40964;42.114;24.220;2023-04-27T09:48:15;97596.06;;;16.46;37.10
55066;BME280;40964;42.114;24.220;2023-04-27T09:50:42;97618.53;;;15.59;38.59
55066;BME280;40964;42.114;24.220;2023-04-27T09:53:10;97622.81;;;15.97;39.08
55066;BME280;40964;42.114;24.220;2023-04-27T09:55:41;97624.16;;;15.95;37.01
55066;BME280;40964;42.114;24.220;2023-04-27T10:06:52;97600.00;;;15.91;36.68
55066;BME280;40964;42.114;24.220;2023-04-27T10:09:21;97611.06;;;15.83;37.80
55066;BME280;40964;42.114;24.220;2023-04-27T10:11:52;97618.19;;;15.77;38.80
55066;BME280;40964;42.114;24.220;2023-04-27T10:14:19;97609.41;;;16.14;36.63
55066;BME280;40964;42.114;24.220;2023-04-27T10:16:50;97605.78;;;16.35;35.89
55066;BME280;40964;42.114;24.220;2023-04-27T10:19:16;97609.50;;;16.34;37.13
55066;BME280;40964;42.114;24.220;2023-04-27T10:22:00;97614.31;;;16.37;37.12
55066;BME280;40964;42.114;24.220;2023-04-27T10:24:38;97606.72;;;16.56;38.39
55066;BME280;40964;42.114;24.220;2023-04-27T10:27:09;97614.44;;;16.68;36.62
55066;BME280;40964;42.114;24.220;2023-04-27T10:29:38;97611.59;;;16.74;34.21
55066;BME280;40964;42.114;24.220;2023-04-27T10:32:08;97622.00;;;16.91;35.19
55066;BME280;40964;42.114;24.220;2023-04-27T10:34:35;97619.34;;;16.91;37.24
55066;BME280;40964;42.114;24.220;2023-04-27T10:37:09;97602.94;;;17.20;35.85
55066;BME280;40964;42.114;24.220;2023-04-27T10:39:40;97604.56;;;17.56;35.01
55066;BME280;40964;42.114;24.220;2023-04-27T10:42:07;97607.75;;;17.28;37.09
55066;BME280;40964;42.114;24.220;2023-04-27T10:44:34;97606.09;;;17.01;35.51
55066;BME280;40964;42.114;24.220;2023-04-27T10:47:20;97604.81;;;17.19;34.40
55066;BME280;40964;42.114;24.220;2023-04-27T10:49:46;97611.47;;;17.37;34.96
55066;BME280;40964;42.114;24.220;2023-04-27T10:52:12;97601.34;;;17.34;34.32
55066;BME280;40964;42.114;24.220;2023-04-27T10:54:37;97601.38;;;17.54;34.06
55066;BME280;40964;42.114;24.220;2023-04-27T10:57:05;97600.31;;;17.55;33.80
55066;BME280;40964;42.114;24.220;2023-04-27T10:59:31;97612.03;;;17.54;34.36
55066;BME280;40964;42.114;24.220;2023-04-27T11:01:57;97606.97;;;17.38;34.87
55066;BME280;40964;42.114;24.220;2023-04-27T11:04:23;97597.03;;;16.97;33.09
55066;BME280;40964;42.114;24.220;2023-04-27T11:06:49;97597.88;;;17.08;34.41
55066;BME280;40964;42.114;24.220;2023-04-27T11:09:25;97598.16;;;17.17;35.41
55066;BME280;40964;42.114;24.220;2023-04-27T11:11:51;97597.13;;;17.28;33.28
55066;BME280;40964;42.114;24.220;2023-04-27T11:14:20;97592.34;;;17.45;33.32
55066;BME280;40964;42.114;24.220;2023-04-27T11:16:48;97595.03;;;17.81;35.64
55066;BME280;40964;42.114;24.220;2023-04-27T11:19:13;97584.63;;;18.00;34.16
55066;BME280;40964;42.114;24.220;2023-04-27T11:21:39;97594.50;;;17.89;32.79
55066;BME280;40964;42.114;24.220;2023-04-27T11:24:06;97591.28;;;17.77;32.51
55066;BME280;40964;42.114;24.220;2023-04-27T11:26:32;97600.34;;;17.81;35.31
55066;BME280;40964;42.114;24.220;2023-04-27T11:29:03;97599.25;;;17.67;34.94
55066;BME280;40964;42.114;24.220;2023-04-27T11:31:52;97598.19;;;18.08;33.05
55066;BME280;40964;42.114;24.220;2023-04-27T11:36:54;97591.22;;;18.28;33.70
55066;BME280;40964;42.114;24.220;2023-04-27T11:39:20;97588.97;;;18.70;33.11
55066;BME280;40964;42.114;24.220;2023-04-27T11:41:46;97589.88;;;19.00;32.80
55066;BME280;40964;42.114;24.220;2023-04-27T11:44:12;97590.03;;;18.69;33.41
55066;BME280;40964;42.114;24.220;2023-04-27T11:46:38;97591.41;;;18.52;31.62
55066;BME280;40964;42.114;24.220;2023-04-27T11:49:06;97597.56;;;18.37;31.87
55066;BME280;40964;42.114;24.220;2023-04-27T11:51:33;97599.41;;;18.41;33.33
55066;BME280;40964;42.114;24.220;2023-04-27T11:54:03;97589.63;;;18.22;33.23
55066;BME280;40964;42.114;24.220;2023-04-27T11:56:37;97606.66;;;18.21;33.78
55066;BME280;40964;42.114;24.220;2023-04-27T11:59:03;97613.88;;;17.95;34.26
55066;BME280;40964;42.114;24.220;2023-04-27T12:01:32;97610.16;;;17.50;35.25
55066;BME280;40964;42.114;24.220;2023-04-27T12:03:59;97605.63;;;17.45;33.40
55066;BME280;40964;42.114;24.220;2023-04-27T12:06:26;97600.56;;;17.69;35.81
55066;BME280;40964;42.114;24.220;2023-04-27T12:09:01;97592.06;;;17.67;33.37
55066;BME280;40964;42.114;24.220;2023-04-27T12:11:28;97592.91;;;17.83;32.88
55066;BME280;40964;42.114;24.220;2023-04-27T12:13:54;97601.63;;;17.68;32.57
55066;BME280;40964;42.114;24.220;2023-04-27T12:16:20;97601.63;;;17.43;33.06
55066;BME280;40964;42.114;24.220;2023-04-27T12:18:49;97597.88;;;17.08;31.77
55066;BME280;40964;42.114;24.220;2023-04-27T12:21:15;97594.44;;;17.08;32.39
55066;BME280;40964;42.114;24.220;2023-04-27T12:23:40;97607.13;;;16.90;34.77
55066;BME280;40964;42.114;24.220;2023-04-27T12:26:06;97598.44;;;16.53;34.74
55066;BME280;40964;42.114;24.220;2023-04-27T12:28:32;97613.22;;;16.28;34.96
55066;BME280;40964;42.114;24.220;2023-04-27T12:30:57;97606.16;;;16.07;35.28
55066;BME280;40964;42.114;24.220;2023-04-27T12:33:23;97618.63;;;16.06;35.69
55066;BME280;40964;42.114;24.220;2023-04-27T12:35:48;97604.78;;;15.94;34.61
55066;BME280;40964;42.114;24.220;2023-04-27T12:38:14;97603.75;;;16.00;35.54
55066;BME280;40964;42.114;24.220;2023-04-27T12:40:39;97611.22;;;16.08;35.53
55066;BME280;40964;42.114;24.220;2023-04-27T12:43:06;97608.06;;;16.11;35.29
55066;BME280;40964;42.114;24.220;2023-04-27T12:45:32;97601.53;;;16.29;35.98
55066;BME280;40964;42.114;24.220;2023-04-27T12:47:57;97607.34;;;16.26;35.31
55066;BME280;40964;42.114;24.220;2023-04-27T12:50:23;97596.97;;;16.20;34.44
55066;BME280;40964;42.114;24.220;2023-04-27T12:52:48;97603.97;;;16.36;34.35
55066;BME280;40964;42.114;24.220;2023-04-27T12:55:14;97596.06;;;16.46;34.58
55066;BME280;40964;42.114;24.220;2023-04-27T12:57:40;97601.81;;;16.90;34.16
55066;BME280;40964;42.114;24.220;2023-04-27T13:00:06;97602.06;;;16.84;33.77
55066;BME280;40964;42.114;24.220;2023-04-27T13:02:34;97599.94;;;16.86;32.74
55066;BME280;40964;42.114;24.220;2023-04-27T13:05:00;97599.72;;;17.02;36.20
55066;BME280;40964;42.114;24.220;2023-04-27T13:07:26;97598.16;;;17.22;33.48